Time;durP1;ratioP1;P1;durP2;ratioP2;P2;SDS_P1;SDS_P2;PMS_P1;PMS_P2;Temp;Humidity;BMP_temperature;BMP_pressure;BME280_temperature;BME280_humidity;BME280_pressure;Samples;Min_cycle;Max_cycle;Signal;HPM_P1;HPM_P2
2023/09/26 00:00:33;;;;;;;9.98;5.03;;;;;;;19.97;52.30;95317.56;5087442;28;20016;-79
2023/09/26 00:02:59;;;;;;;8.23;4.38;;;;;;;19.89;52.09;95311.63;5070109;28;20455;-79
2023/09/26 00:05:25;;;;;;;9.98;4.57;;;;;;;19.88;52.12;95321.25;5087397;28;20095;-80
2023/09/26 00:07:51;;;;;;;6.15;4.10;;;;;;;19.85;52.06;95308.28;5086855;28;20028;-80
2023/09/26 00:10:18;;;;;;;9.10;4.03;;;;;;;19.76;52.06;95311.97;5088516;28;20600;-80
2023/09/26 00:12:44;;;;;;;8.30;3.95;;;;;;;19.77;51.83;95313.50;5088221;28;20024;-80
2023/09/26 00:15:11;;;;;;;8.25;4.30;;;;;;;19.75;51.94;95312.47;5087287;28;20111;-80
2023/09/26 00:17:36;;;;;;;11.98;4.30;;;;;;;19.70;51.94;95302.00;5088326;28;20024;-80
2023/09/26 00:20:09;;;;;;;6.03;3.92;;;;;;;19.71;51.97;95301.50;5069869;28;20031;-79
2023/09/26 00:22:36;;;;;;;6.93;4.10;;;;;;;19.63;51.96;95303.97;5087036;28;20027;-79
2023/09/26 00:25:02;;;;;;;5.32;3.88;;;;;;;19.67;51.36;95314.94;5088283;28;20083;-79
2023/09/26 00:27:28;;;;;;;6.95;4.00;;;;;;;19.60;51.11;95307.72;5069920;28;20113;-80
2023/09/26 00:29:53;;;;;;;8.88;4.22;;;;;;;19.58;51.21;95301.88;5086479;28;20107;-79
2023/09/26 00:32:18;;;;;;;9.45;4.57;;;;;;;19.58;51.13;95312.22;5086894;28;20085;-80
2023/09/26 00:34:44;;;;;;;9.27;4.53;;;;;;;19.60;50.89;95302.13;5086507;28;20024;-80
2023/09/26 00:37:09;;;;;;;6.65;4.80;;;;;;;19.49;50.89;95299.16;5086262;28;20030;-79
2023/09/26 00:39:36;;;;;;;11.30;5.05;;;;;;;19.48;50.87;95306.00;5088172;28;20028;-79
2023/09/26 00:42:02;;;;;;;7.53;4.60;;;;;;;19.47;50.85;95303.72;5087729;28;20098;-79
2023/09/26 00:44:27;;;;;;;7.20;4.60;;;;;;;19.44;50.72;95301.88;5069698;28;20016;-80
2023/09/26 00:46:52;;;;;;;7.82;5.43;;;;;;;19.42;50.36;95305.16;5087785;28;20063;-80
2023/09/26 00:49:18;;;;;;;7.65;5.20;;;;;;;19.41;50.17;95300.84;5086372;28;20115;-80
2023/09/26 00:51:43;;;;;;;6.82;5.00;;;;;;;19.36;50.02;95293.19;5069176;28;20027;-80
2023/09/26 00:54:10;;;;;;;11.32;4.63;;;;;;;19.40;49.81;95302.09;5069349;28;20020;-80
2023/09/26 00:56:38;;;;;;;9.65;5.30;;;;;;;19.39;49.77;95306.16;5086447;28;20085;-80
2023/09/26 00:59:03;;;;;;;8.38;4.40;;;;;;;19.36;49.27;95304.31;5087155;28;20632;-80
2023/09/26 01:01:30;;;;;;;7.80;4.20;;;;;;;19.35;49.38;95311.16;5069330;28;20028;-79
2023/09/26 01:03:56;;;;;;;11.02;4.75;;;;;;;19.33;49.21;95308.09;5086020;28;20032;-81
2023/09/26 01:06:22;;;;;;;11.52;4.72;;;;;;;19.28;49.53;95306.75;5086030;28;20086;-79
2023/09/26 01:08:47;;;;;;;11.30;4.70;;;;;;;19.29;49.34;95302.72;5068572;28;20036;-81
2023/09/26 01:11:13;;;;;;;10.25;4.25;;;;;;;19.30;49.52;95300.69;5085958;28;20024;-80
2023/09/26 01:13:39;;;;;;;10.75;4.13;;;;;;;19.25;49.12;95296.56;5069000;28;20024;-80
2023/09/26 01:16:19;;;;;;;7.07;3.60;;;;;;;19.23;48.83;95303.91;5087305;28;20024;-78
2023/09/26 01:18:45;;;;;;;11.25;3.42;;;;;;;19.23;49.07;95295.53;5085396;28;20414;-80
2023/09/26 01:21:11;;;;;;;7.72;3.08;;;;;;;19.17;48.83;95287.09;5068707;28;20097;-80
2023/09/26 01:23:39;;;;;;;11.45;3.40;;;;;;;19.16;49.18;95293.16;5085704;28;20444;-80
2023/09/26 01:26:05;;;;;;;10.45;3.53;;;;;;;19.17;49.14;95292.66;5068448;28;20081;-79
2023/09/26 01:28:31;;;;;;;6.63;3.97;;;;;;;19.13;49.28;95297.66;5085717;28;20111;-79
2023/09/26 01:30:57;;;;;;;12.20;5.82;;;;;;;19.14;49.74;95290.84;5068205;28;20106;-79
2023/09/26 01:33:23;;;;;;;12.23;3.00;;;;;;;19.13;49.68;95299.69;5085580;28;20046;-78
2023/09/26 01:35:51;;;;;;;11.20;3.42;;;;;;;19.12;49.58;95298.94;5085522;28;20031;-79
2023/09/26 01:38:18;;;;;;;7.20;3.13;;;;;;;19.09;49.86;95300.66;5085261;28;20111;-78
2023/09/26 01:40:43;;;;;;;8.25;2.90;;;;;;;19.05;49.84;95299.34;5068839;28;20021;-79
2023/09/26 01:43:08;;;;;;;10.88;3.22;;;;;;;19.04;50.08;95297.81;5085010;28;20036;-80
2023/09/26 01:45:34;;;;;;;10.13;3.97;;;;;;;19.00;50.35;95294.44;5068494;28;20122;-80
2023/09/26 01:48:00;;;;;;;7.35;3.17;;;;;;;18.97;50.69;95296.16;5084887;28;20028;-78
2023/09/26 01:50:26;;;;;;;6.88;3.38;;;;;;;19.03;49.93;95297.00;5084698;28;20046;-79
2023/09/26 01:52:52;;;;;;;10.85;3.75;;;;;;;19.02;50.18;95301.06;5067963;28;20043;-79
2023/09/26 01:55:21;;;;;;;9.75;4.28;;;;;;;18.92;50.73;95296.84;5085181;28;20100;-80
2023/09/26 01:57:50;;;;;;;7.65;3.55;;;;;;;18.93;50.86;95306.00;5085614;28;20115;-79
2023/09/26 02:00:17;;;;;;;8.90;3.78;;;;;;;18.92;50.88;95299.63;5068051;28;20027;-79
2023/09/26 02:02:51;;;;;;;8.30;4.38;;;;;;;18.95;51.12;95311.84;5085053;28;20111;-80
2023/09/26 02:05:18;;;;;;;11.05;3.85;;;;;;;18.95;51.22;95306.25;5067779;28;20020;-80
2023/09/26 02:07:46;;;;;;;9.00;3.53;;;;;;;18.95;51.14;95306.25;5085114;28;20080;-80
2023/09/26 02:10:11;;;;;;;12.43;4.07;;;;;;;18.87;50.99;95311.47;5084674;28;20398;-78
2023/09/26 02:12:39;;;;;;;7.30;3.40;;;;;;;18.75;51.21;95302.16;5067698;28;20020;-79
2023/09/26 02:15:06;;;;;;;12.85;3.63;;;;;;;18.76;51.05;95309.28;5084702;28;20032;-81
2023/09/26 02:17:35;;;;;;;8.73;3.35;;;;;;;18.77;50.55;95302.44;5087700;28;20031;-82
2023/09/26 02:20:12;;;;;;;11.20;3.85;;;;;;;18.73;50.97;95306.66;5070840;28;20028;-78
2023/09/26 02:22:48;;;;;;;11.05;3.75;;;;;;;18.75;50.30;95310.53;5068621;28;20024;-79
2023/09/26 02:25:15;;;;;;;12.73;3.55;;;;;;;18.68;50.60;95308.09;5085061;28;20032;-79
2023/09/26 02:27:42;;;;;;;9.82;4.60;;;;;;;18.60;50.82;95298.59;5084936;28;20097;-79
2023/09/26 02:30:09;;;;;;;6.72;3.80;;;;;;;18.57;51.05;95305.09;5084546;28;20038;-80
2023/09/26 02:32:35;;;;;;;8.52;3.35;;;;;;;18.56;50.62;95298.00;5084683;28;20402;-80
2023/09/26 02:35:02;;;;;;;7.90;3.45;;;;;;;18.56;50.83;95298.78;5067936;28;20024;-79
2023/09/26 02:37:27;;;;;;;7.30;3.35;;;;;;;18.53;50.64;95288.63;5067634;28;20035;-79
2023/09/26 02:39:52;;;;;;;9.95;3.50;;;;;;;18.50;51.09;95294.38;5084506;28;20024;-78
2023/09/26 02:42:18;;;;;;;11.13;3.67;;;;;;;18.48;50.97;95291.31;5084179;28;20499;-80
2023/09/26 02:44:43;;;;;;;9.57;3.50;;;;;;;18.49;50.43;95296.38;5084610;28;20027;-78
2023/09/26 02:47:09;;;;;;;7.75;3.72;;;;;;;18.49;50.19;95288.03;5067414;28;20089;-80
2023/09/26 02:49:34;;;;;;;6.45;3.28;;;;;;;18.50;50.14;95300.69;5085955;28;20119;-79
2023/09/26 02:52:00;;;;;;;8.52;3.15;;;;;;;18.56;50.08;95292.44;5084619;28;20045;-80
2023/09/26 02:54:28;;;;;;;12.90;3.65;;;;;;;18.50;50.06;95300.69;5085588;28;20104;-80
2023/09/26 02:56:53;;;;;;;11.23;3.72;;;;;;;18.48;50.00;95300.41;5084487;28;20024;-80
2023/09/26 02:59:19;;;;;;;8.43;3.22;;;;;;;18.51;49.98;95291.09;5082408;28;20107;-80
2023/09/26 03:01:44;;;;;;;8.25;3.47;;;;;;;18.45;50.44;95289.47;5085498;28;20113;-80
2023/09/26 03:04:10;;;;;;;7.55;3.20;;;;;;;18.48;50.03;95280.94;5089282;28;20020;-80
2023/09/26 03:06:35;;;;;;;12.88;4.80;;;;;;;18.48;49.98;95291.31;5071335;28;20416;-80
2023/09/26 03:09:00;;;;;;;14.15;4.13;;;;;;;18.53;49.83;95304.56;5087828;28;20175;-79
2023/09/26 03:11:26;;;;;;;11.15;3.78;;;;;;;18.51;49.37;95291.09;5087889;28;20446;-80
2023/09/26 03:13:51;;;;;;;10.00;3.22;;;;;;;18.51;49.67;95298.69;5071448;28;20414;-79
2023/09/26 03:16:18;;;;;;;7.80;3.05;;;;;;;18.47;49.23;95300.91;5071073;28;20039;-80
2023/09/26 03:18:44;;;;;;;7.03;3.20;;;;;;;18.42;48.97;95298.78;5088141;28;20016;-79
2023/09/26 03:21:11;;;;;;;12.77;3.40;;;;;;;18.46;48.58;95296.56;5088064;28;20027;-77
2023/09/26 03:23:36;;;;;;;9.52;3.58;;;;;;;18.45;48.70;95304.16;5088112;28;20418;-80
2023/09/26 03:26:02;;;;;;;11.13;3.42;;;;;;;18.42;48.56;95299.56;5087810;28;20020;-80
2023/09/26 03:28:27;;;;;;;8.70;3.65;;;;;;;18.39;48.96;95300.50;5070589;28;20044;-79
2023/09/26 03:30:53;;;;;;;9.18;3.35;;;;;;;18.47;48.65;95301.66;5087752;28;20126;-79
2023/09/26 03:33:18;;;;;;;11.27;3.33;;;;;;;18.40;48.95;95301.28;5089081;28;20024;-80
2023/09/26 03:35:43;;;;;;;10.20;3.17;;;;;;;18.40;48.20;95288.13;5070860;28;20036;-80
2023/09/26 03:38:09;;;;;;;11.52;3.50;;;;;;;18.40;48.79;95295.69;5070625;28;20505;-80
2023/09/26 03:40:34;;;;;;;10.35;3.58;;;;;;;18.40;49.13;95304.81;5070183;28;20141;-79
2023/09/26 03:42:59;;;;;;;12.77;3.40;;;;;;;18.36;48.88;95303.50;5087410;28;20036;-80
2023/09/26 03:45:25;;;;;;;9.25;3.50;;;;;;;18.37;49.13;95302.25;5070554;28;20139;-79
2023/09/26 03:47:51;;;;;;;14.52;3.75;;;;;;;18.38;49.10;95303.78;5070368;28;20032;-79
2023/09/26 03:50:16;;;;;;;16.83;4.63;;;;;;;18.45;49.02;95314.53;5086975;28;20561;-81
2023/09/26 03:52:42;;;;;;;10.73;3.42;;;;;;;18.35;49.21;95313.84;5087635;28;20091;-83
2023/09/26 03:55:08;;;;;;;10.63;3.80;;;;;;;18.34;49.49;95312.31;5088731;28;20032;-81
2023/09/26 03:57:34;;;;;;;13.80;3.97;;;;;;;18.39;49.46;95317.19;5087271;28;20482;-83
2023/09/26 04:00:00;;;;;;;14.60;3.60;;;;;;;18.38;49.48;95320.47;5070771;28;20397;-82
2023/09/26 04:02:25;;;;;;;13.85;3.63;;;;;;;18.36;49.73;95322.97;5087322;28;20107;-81
2023/09/26 04:04:51;;;;;;;13.18;3.33;;;;;;;18.32;49.73;95314.81;5087463;28;20547;-79
2023/09/26 04:07:16;;;;;;;8.27;3.35;;;;;;;18.36;49.63;95318.19;5070636;28;20020;-79
2023/09/26 04:09:42;;;;;;;9.45;3.25;;;;;;;18.36;50.00;95323.75;5085178;28;20105;-79
2023/09/26 04:12:07;;;;;;;13.27;4.00;;;;;;;18.31;49.55;95325.16;5087619;28;20073;-80
2023/09/26 04:14:32;;;;;;;11.30;3.63;;;;;;;18.31;49.50;95316.81;5088439;28;20494;-79
2023/09/26 04:16:58;;;;;;;13.13;3.28;;;;;;;18.33;49.23;95323.91;5087094;28;20024;-79
2023/09/26 04:19:23;;;;;;;15.55;4.50;;;;;;;18.28;49.09;95312.19;5087006;28;20032;-79
2023/09/26 04:21:49;;;;;;;11.82;3.25;;;;;;;18.28;48.95;95322.56;5087047;28;20507;-77
2023/09/26 04:24:15;;;;;;;7.10;3.50;;;;;;;18.16;49.22;95316.03;5070224;28;20024;-79
2023/09/26 04:26:40;;;;;;;11.52;3.38;;;;;;;18.12;49.59;95315.47;5085846;28;20141;-79
2023/09/26 04:29:06;;;;;;;10.38;3.72;;;;;;;18.16;49.33;95309.69;5068805;28;20136;-79
2023/09/26 04:31:31;;;;;;;12.48;4.15;;;;;;;18.16;49.71;95327.16;5069246;28;20035;-78
2023/09/26 04:33:57;;;;;;;12.18;4.22;;;;;;;18.17;49.58;95320.34;5086593;28;20077;-79
2023/09/26 04:36:23;;;;;;;13.80;3.45;;;;;;;18.16;49.48;95323.59;5069913;28;20055;-79
2023/09/26 04:38:48;;;;;;;19.83;4.20;;;;;;;18.10;49.52;95317.94;5069765;28;20537;-79
2023/09/26 04:41:14;;;;;;;10.85;3.33;;;;;;;18.09;49.48;95324.00;5086352;28;20024;-79
2023/09/26 04:43:39;;;;;;;12.85;4.15;;;;;;;18.13;49.67;95328.13;5069126;28;20020;-80
2023/09/26 04:46:15;;;;;;;13.10;3.55;;;;;;;18.16;49.64;95326.38;5087979;28;20430;-78
2023/09/26 04:48:42;;;;;;;8.07;3.72;;;;;;;18.11;49.92;95324.28;5086069;28;20026;-79
2023/09/26 04:51:12;;;;;;;13.32;4.00;;;;;;;18.13;49.67;95336.47;5069256;28;20119;-79
2023/09/26 04:53:37;;;;;;;15.30;4.43;;;;;;;18.08;50.09;95339.91;5068998;28;20028;-79
2023/09/26 04:56:03;;;;;;;14.63;4.40;;;;;;;18.10;50.03;95331.09;5086352;28;20027;-79
2023/09/26 04:58:32;;;;;;;11.43;4.03;;;;;;;18.05;50.09;95336.06;5086028;28;20669;-77
2023/09/26 05:01:00;;;;;;;12.23;4.00;;;;;;;18.05;50.07;95343.63;5087504;28;20028;-78
2023/09/26 05:03:26;;;;;;;13.55;3.50;;;;;;;18.03;50.41;95340.56;5069524;28;20050;-79
2023/09/26 05:05:52;;;;;;;18.23;4.65;;;;;;;18.08;50.59;95348.25;5068794;28;20438;-79
2023/09/26 05:08:17;;;;;;;8.32;4.10;;;;;;;18.12;50.92;95348.06;5085606;28;20169;-78
2023/09/26 05:10:43;;;;;;;14.60;3.78;;;;;;;18.08;50.49;95345.47;5085780;28;20522;-78
2023/09/26 05:13:08;;;;;;;15.70;3.83;;;;;;;18.12;50.72;95350.84;5068768;28;20119;-79
2023/09/26 05:15:35;;;;;;;13.52;3.63;;;;;;;18.17;50.90;95345.38;5085453;28;20102;-79
2023/09/26 05:18:01;;;;;;;17.92;3.80;;;;;;;18.24;50.17;95345.03;5085969;28;20028;-79
2023/09/26 05:20:26;;;;;;;13.07;3.83;;;;;;;18.32;49.56;95353.75;5085614;28;20024;-79
2023/09/26 05:22:52;;;;;;;11.82;3.60;;;;;;;18.30;50.04;95348.69;5086889;28;20407;-80
2023/09/26 05:25:19;;;;;;;12.82;3.88;;;;;;;18.30;50.16;95347.91;5069035;28;20457;-79
2023/09/26 05:27:44;;;;;;;12.00;3.83;;;;;;;18.34;50.01;95347.72;5068607;28;20175;-78
2023/09/26 05:30:11;;;;;;;15.40;4.05;;;;;;;18.40;50.33;95357.69;5086840;28;20056;-78
2023/09/26 05:32:37;;;;;;;15.95;4.10;;;;;;;18.40;50.46;95354.16;5085507;28;20347;-80
2023/09/26 05:35:06;;;;;;;14.85;4.20;;;;;;;18.44;50.14;95351.97;5085581;28;20455;-79
2023/09/26 05:37:31;;;;;;;7.68;3.83;;;;;;;18.47;49.55;95359.38;5085351;28;20027;-80
2023/09/26 05:39:57;;;;;;;8.95;3.55;;;;;;;18.44;50.03;95349.94;5068197;28;20028;-79
2023/09/26 05:42:22;;;;;;;17.00;5.85;;;;;;;18.56;49.68;95360.03;5068553;28;20173;-80
2023/09/26 05:44:47;;;;;;;12.32;3.60;;;;;;;18.66;49.49;95354.38;5085271;28;20028;-80
2023/09/26 05:47:13;;;;;;;13.40;4.22;;;;;;;18.74;49.05;95358.31;5068430;28;20398;-79
2023/09/26 05:49:38;;;;;;;8.18;3.75;;;;;;;18.71;49.05;95357.28;5085007;28;20034;-79
2023/09/26 05:52:04;;;;;;;13.13;3.90;;;;;;;18.71;49.93;95371.22;5084826;28;20032;-79
2023/09/26 05:54:31;;;;;;;11.13;3.83;;;;;;;18.73;49.61;95360.34;5085499;28;20024;-79
2023/09/26 05:56:56;;;;;;;9.75;3.88;;;;;;;18.84;48.77;95366.09;5085018;28;20111;-81
2023/09/26 05:59:21;;;;;;;10.30;3.83;;;;;;;18.89;48.75;95363.91;5068121;28;20511;-80
2023/09/26 06:01:47;;;;;;;6.45;3.40;;;;;;;18.90;48.57;95362.66;5084617;28;20028;-81
2023/09/26 06:04:12;;;;;;;9.73;3.50;;;;;;;18.93;48.82;95370.81;5085099;28;20500;-79
2023/09/26 06:06:38;;;;;;;11.27;3.30;;;;;;;19.03;48.37;95369.44;5084921;28;20481;-78
2023/09/26 06:09:04;;;;;;;15.30;4.55;;;;;;;19.11;48.26;95369.84;5084151;28;20043;-79
2023/09/26 06:11:30;;;;;;;12.10;3.85;;;;;;;19.15;48.43;95366.84;5085235;28;20020;-78
2023/09/26 06:13:55;;;;;;;28.10;5.78;;;;;;;19.18;48.63;95363.88;5067533;28;20043;-77
2023/09/26 06:16:20;;;;;;;10.60;3.33;;;;;;;19.32;47.89;95360.25;5086309;28;20222;-78
2023/09/26 06:18:47;;;;;;;8.15;3.63;;;;;;;19.44;47.52;95366.81;5067763;28;20028;-78
2023/09/26 06:21:14;;;;;;;7.88;3.60;;;;;;;19.50;47.90;95364.84;5085953;28;20039;-79
2023/09/26 06:23:40;;;;;;;13.02;3.53;;;;;;;19.60;48.44;95368.31;5084321;28;20089;-78
2023/09/26 06:26:07;;;;;;;12.50;4.63;;;;;;;19.67;48.18;95364.31;5084320;28;20028;-78
2023/09/26 06:28:32;;;;;;;11.27;4.22;;;;;;;19.68;48.14;95361.06;5084723;28;20040;-79
2023/09/26 06:31:08;;;;;;;11.57;3.55;;;;;;;19.79;47.11;95358.44;5083970;28;20031;-79
2023/09/26 06:33:34;;;;;;;10.63;3.95;;;;;;;19.77;47.51;95354.59;5067550;28;20397;-78
2023/09/26 06:36:00;;;;;;;10.10;3.75;;;;;;;19.82;48.07;95362.25;5083843;28;20106;-79
2023/09/26 06:38:25;;;;;;;9.55;3.60;;;;;;;19.88;48.03;95352.69;5067456;28;20111;-78
2023/09/26 06:41:06;;;;;;;13.52;4.13;;;;;;;19.91;47.83;95358.59;5083978;28;20039;-79
2023/09/26 06:43:32;;;;;;;14.48;4.07;;;;;;;19.98;48.37;95355.38;5067770;28;20028;-79
2023/09/26 06:45:58;;;;;;;13.73;3.97;;;;;;;20.04;48.15;95367.34;5084371;28;20106;-78
2023/09/26 06:48:23;;;;;;;8.85;3.83;;;;;;;20.09;48.00;95361.09;5084175;28;20465;-79
2023/09/26 06:50:49;;;;;;;10.32;3.72;;;;;;;20.14;47.67;95352.78;5067267;28;20032;-79
2023/09/26 06:53:14;;;;;;;9.50;4.10;;;;;;;20.25;47.43;95360.50;5085697;28;20387;-78
2023/09/26 06:55:39;;;;;;;14.32;4.38;;;;;;;20.24;47.73;95364.53;5067145;28;20032;-78
2023/09/26 06:58:05;;;;;;;14.25;4.00;;;;;;;20.28;47.01;95365.09;5083826;28;20024;-78
2023/09/26 07:00:31;;;;;;;14.48;3.95;;;;;;;20.38;47.51;95371.31;5084156;28;20028;-79
2023/09/26 07:02:57;;;;;;;9.25;3.58;;;;;;;20.40;47.13;95361.16;5067039;28;20035;-80
2023/09/26 07:05:23;;;;;;;15.30;5.30;;;;;;;20.50;47.38;95361.06;5084033;28;20055;-80
2023/09/26 07:07:48;;;;;;;12.15;4.00;;;;;;;20.52;47.55;95366.91;5067572;28;20021;-79
2023/09/26 07:10:14;;;;;;;10.65;3.97;;;;;;;20.59;47.01;95364.47;5066726;28;20028;-79
2023/09/26 07:12:40;;;;;;;10.13;3.58;;;;;;;20.65;47.19;95373.66;5084044;28;20090;-78
2023/09/26 07:15:08;;;;;;;14.93;3.65;;;;;;;20.68;46.38;95369.88;5085147;28;20026;-79
2023/09/26 07:17:33;;;;;;;10.20;3.58;;;;;;;20.66;46.37;95366.81;5067400;28;20033;-80
2023/09/26 07:20:00;;;;;;;10.50;3.38;;;;;;;20.67;45.95;95367.56;5085352;28;20059;-79
2023/09/26 07:22:25;;;;;;;10.85;3.78;;;;;;;20.70;45.95;95363.78;5083719;28;20418;-79
2023/09/26 07:24:51;;;;;;;12.02;4.45;;;;;;;20.76;45.75;95372.22;5067235;28;20123;-80
2023/09/26 07:27:17;;;;;;;10.88;3.35;;;;;;;20.88;45.47;95373.88;5083157;28;20134;-78
2023/09/26 07:29:46;;;;;;;9.60;3.65;;;;;;;20.92;45.07;95371.59;5083781;28;20026;-80
2023/09/26 07:32:12;;;;;;;10.95;3.50;;;;;;;20.99;44.93;95373.19;5083554;28;20016;-78
2023/09/26 07:34:37;;;;;;;9.30;4.05;;;;;;;21.05;44.95;95374.03;5083953;28;20111;-79
2023/09/26 07:37:03;;;;;;;15.55;4.53;;;;;;;21.13;45.12;95366.69;5083564;28;20412;-80
2023/09/26 07:39:28;;;;;;;12.38;3.50;;;;;;;21.19;43.65;95365.47;5084995;28;20078;-80
2023/09/26 07:41:53;;;;;;;10.65;3.53;;;;;;;21.37;43.79;95372.75;5085007;28;20110;-80
2023/09/26 07:44:19;;;;;;;13.27;3.50;;;;;;;21.43;43.66;95358.81;5084654;28;20028;-80
2023/09/26 07:46:44;;;;;;;9.23;3.45;;;;;;;21.54;43.49;95361.69;5085375;28;20471;-79
2023/09/26 07:49:10;;;;;;;14.45;3.72;;;;;;;21.63;42.98;95355.91;5086799;28;20028;-80
2023/09/26 07:51:35;;;;;;;8.45;3.58;;;;;;;21.86;42.52;95370.78;5088791;28;20127;-80
2023/09/26 07:54:01;;;;;;;11.90;4.28;;;;;;;21.92;42.14;95360.38;5088847;28;20024;-80
2023/09/26 07:56:26;;;;;;;8.00;3.65;;;;;;;22.01;41.47;95360.16;5087247;28;20024;-80
2023/09/26 07:58:52;;;;;;;11.35;3.97;;;;;;;22.16;40.87;95348.78;5087243;28;20028;-81
2023/09/26 08:01:18;;;;;;;12.75;4.25;;;;;;;22.29;40.85;95356.72;5086928;28;20402;-80
2023/09/26 08:03:43;;;;;;;13.27;4.60;;;;;;;22.36;40.61;95352.66;5087522;28;20016;-80
2023/09/26 08:06:09;;;;;;;11.05;3.83;;;;;;;22.48;40.07;95357.81;5086911;28;20020;-79
2023/09/26 08:08:35;;;;;;;11.55;3.75;;;;;;;22.62;39.81;95356.03;5070159;28;20032;-80
2023/09/26 08:11:08;;;;;;;13.15;3.22;;;;;;;22.77;39.32;95358.63;5087191;28;20020;-80
2023/09/26 08:13:34;;;;;;;;;;;;;;;22.94;39.14;95362.25;5087982;28;20108;-81
2023/09/26 08:16:00;;;;;;;10.02;3.47;;;;;;;23.08;38.84;95351.28;5070097;28;20301;-80
2023/09/26 08:18:25;;;;;;;11.55;3.55;;;;;;;23.29;38.23;95347.72;5069782;28;20020;-81
2023/09/26 08:20:55;;;;;;;17.77;4.30;;;;;;;23.49;37.89;95345.91;5086722;28;20377;-80
2023/09/26 08:23:24;;;;;;;12.05;3.88;;;;;;;23.66;37.60;95348.69;5069909;28;20020;-80
2023/09/26 08:25:55;;;;;;;11.27;3.75;;;;;;;23.96;37.41;95343.25;5088065;28;20032;-79
2023/09/26 08:28:21;;;;;;;9.20;3.83;;;;;;;24.22;36.73;95337.28;5069595;28;20426;-80
2023/09/26 08:30:46;;;;;;;9.63;3.58;;;;;;;24.46;35.95;95329.00;5086598;28;20028;-80
2023/09/26 08:33:11;;;;;;;14.70;3.97;;;;;;;24.70;35.52;95336.78;5088262;28;20102;-81
2023/09/26 08:35:37;;;;;;;11.93;4.10;;;;;;;25.00;35.13;95334.00;5089053;28;20165;-80
2023/09/26 08:38:02;;;;;;;16.70;4.65;;;;;;;25.30;34.30;95333.28;5070356;28;20024;-79
2023/09/26 08:40:28;;;;;;;19.67;5.50;;;;;;;25.61;34.40;95327.09;5086559;28;20028;-81
2023/09/26 08:42:57;;;;;;;10.20;3.30;;;;;;;26.01;33.26;95341.53;5069978;28;20410;-80
2023/09/26 08:45:26;;;;;;;9.20;3.38;;;;;;;26.33;32.72;95333.22;5086911;28;20020;-80
2023/09/26 08:47:54;;;;;;;15.45;3.40;;;;;;;26.63;32.38;95344.34;5086927;28;20073;-79
2023/09/26 08:50:24;;;;;;;10.05;3.70;;;;;;;26.84;31.81;95340.97;5086247;28;20115;-81
2023/09/26 08:52:49;;;;;;;8.23;3.53;;;;;;;26.80;31.92;95340.53;5086506;28;20517;-80
2023/09/26 08:55:15;;;;;;;10.13;3.25;;;;;;;27.20;30.95;95336.59;5085648;28;20114;-80
2023/09/26 08:57:40;;;;;;;8.95;3.33;;;;;;;27.36;29.71;95328.41;5087581;28;20026;-80
2023/09/26 09:00:14;;;;;;;14.88;3.75;;;;;;;27.64;29.31;95328.66;5086241;28;20115;-80
2023/09/26 09:02:40;;;;;;;13.88;3.90;;;;;;;27.85;29.23;95325.22;5086414;28;20035;-80
2023/09/26 09:05:06;;;;;;;10.82;2.90;;;;;;;27.95;29.20;95337.63;5069164;28;20020;-80
2023/09/26 09:07:32;;;;;;;7.15;3.25;;;;;;;28.08;28.55;95329.13;5085775;28;20085;-81
2023/09/26 09:10:07;;;;;;;8.57;3.15;;;;;;;27.97;28.80;95323.69;5085982;28;20028;-79
2023/09/26 09:12:34;;;;;;;12.57;2.97;;;;;;;27.93;29.01;95337.38;5087154;28;20089;-80
2023/09/26 09:14:59;;;;;;;8.43;2.75;;;;;;;27.60;29.21;95322.56;5068802;28;20118;-80
2023/09/26 09:17:25;;;;;;;11.65;3.00;;;;;;;27.55;29.23;95329.09;5068708;28;20130;-80
2023/09/26 09:19:51;;;;;;;9.23;3.17;;;;;;;27.89;29.07;95329.25;5068796;28;20588;-81
2023/09/26 09:22:24;;;;;;;10.00;2.55;;;;;;;28.29;28.10;95329.22;5085719;28;20024;-80
2023/09/26 09:24:54;;;;;;;;;;;;;;;28.45;28.26;95321.72;5086350;28;20056;-80
2023/09/26 09:27:32;;;;;;;10.48;4.00;;;;;;;28.39;28.88;95335.19;5068843;28;20373;-80
2023/09/26 09:30:12;;;;;;;11.38;3.22;;;;;;;28.65;28.52;95329.50;5085377;28;20540;-81
2023/09/26 09:32:42;;;;;;;9.93;3.38;;;;;;;28.69;28.72;95321.44;5067925;28;20107;-81
2023/09/26 09:35:13;;;;;;;10.20;3.38;;;;;;;28.44;28.70;95320.19;5085757;28;20031;-81
2023/09/26 09:37:41;;;;;;;7.50;3.10;;;;;;;28.33;28.72;95321.22;5085305;28;20563;-81
2023/09/26 09:40:08;;;;;;;11.23;3.40;;;;;;;28.24;29.09;95319.56;5068300;28;20043;-80
2023/09/26 09:42:33;;;;;;;8.68;2.92;;;;;;;28.28;29.28;95310.75;5085125;28;20024;-81
2023/09/26 09:44:59;;;;;;;8.70;3.25;;;;;;;28.44;29.08;95317.34;5068446;28;20024;-80
2023/09/26 09:47:24;;;;;;;10.38;3.80;;;;;;;28.59;28.87;95320.38;5086696;28;20486;-80
2023/09/26 09:49:51;;;;;;;9.13;3.35;;;;;;;28.65;28.78;95323.09;5084726;28;20422;-80
2023/09/26 09:52:21;;;;;;;12.35;3.20;;;;;;;29.01;28.68;95318.41;5085158;28;20044;-81
2023/09/26 09:54:50;;;;;;;13.63;3.65;;;;;;;28.80;28.44;95323.25;5067778;28;20027;-80
2023/09/26 09:57:17;;;;;;;8.15;3.03;;;;;;;29.01;28.45;95324.06;5085341;28;20077;-81
2023/09/26 09:59:44;;;;;;;14.23;3.45;;;;;;;28.83;28.40;95317.25;5084651;28;20043;-81
2023/09/26 10:02:16;;;;;;;11.23;3.13;;;;;;;29.39;27.78;95308.75;5085111;28;20111;-81
2023/09/26 10:04:44;;;;;;;11.90;4.32;;;;;;;30.42;27.03;95316.25;5084934;28;20021;-80
2023/09/26 10:07:12;;;;;;;17.50;4.43;;;;;;;31.66;25.25;95310.28;5085844;28;20043;-80
2023/09/26 10:09:38;;;;;;;8.80;3.50;;;;;;;30.88;25.81;95315.66;5085085;28;20052;-81
2023/09/26 10:12:04;;;;;;;11.77;3.20;;;;;;;30.45;26.68;95311.50;5067464;28;20076;-80
2023/09/26 10:14:31;;;;;;;11.65;3.47;;;;;;;31.13;25.98;95313.06;5084937;28;20490;-80
2023/09/26 10:16:57;;;;;;;16.83;3.90;;;;;;;31.71;25.67;95306.50;5067806;28;20028;-80
2023/09/26 10:19:25;;;;;;;10.30;3.25;;;;;;;32.96;23.24;95304.22;5084913;28;20023;-80
2023/09/26 10:21:52;;;;;;;9.93;3.55;;;;;;;33.69;23.17;95306.19;5084452;28;20344;-81
2023/09/26 10:24:18;;;;;;;13.35;3.80;;;;;;;34.27;22.22;95296.13;5084289;28;20028;-79
2023/09/26 10:26:48;;;;;;;14.55;4.43;;;;;;;34.96;21.16;95300.25;5085292;28;20518;-81
2023/09/26 10:29:19;;;;;;;13.30;3.78;;;;;;;36.02;20.09;95294.25;5084469;28;20039;-81
2023/09/26 10:31:53;;;;;;;9.10;4.63;;;;;;;36.71;19.58;95293.66;5085574;28;20450;-81
2023/09/26 10:34:18;;;;;;;13.73;3.53;;;;;;;37.42;18.81;95298.78;5068137;28;20559;-80
2023/09/26 10:36:44;;;;;;;11.95;3.47;;;;;;;37.95;17.92;95287.34;5067311;28;20024;-81
2023/09/26 10:39:09;;;;;;;13.52;3.65;;;;;;;38.64;17.83;95297.72;5084255;28;20020;-81
2023/09/26 10:41:36;;;;;;;10.38;4.00;;;;;;;39.29;16.82;95292.59;5067360;28;20082;-81
2023/09/26 10:44:04;;;;;;;9.82;2.50;;;;;;;39.64;16.33;95286.88;5084579;28;20054;-81
2023/09/26 10:46:30;;;;;;;8.50;3.08;;;;;;;39.99;16.34;95286.84;5068185;28;20028;-81
2023/09/26 10:49:00;;;;;;;12.88;3.72;;;;;;;40.07;16.04;95300.97;5083987;28;20468;-81
2023/09/26 10:51:25;;;;;;;12.52;3.75;;;;;;;40.34;15.68;95294.66;5067288;28;20118;-81
2023/09/26 10:53:51;;;;;;;13.80;4.25;;;;;;;41.00;15.02;95291.28;5067010;28;20446;-81
2023/09/26 10:56:17;;;;;;;9.30;3.25;;;;;;;41.34;14.79;95289.59;5084540;28;20022;-81
2023/09/26 10:58:42;;;;;;;10.23;2.90;;;;;;;41.43;14.89;95281.41;5083942;28;20112;-81
2023/09/26 11:01:08;;;;;;;9.57;4.07;;;;;;;41.15;14.86;95284.19;5067461;28;20035;-81
2023/09/26 11:03:34;;;;;;;4.88;2.50;;;;;;;40.63;15.56;95279.06;5084023;28;20051;-81
2023/09/26 11:06:01;;;;;;;11.80;3.20;;;;;;;40.73;15.36;95288.28;5083991;28;20066;-81
2023/09/26 11:08:27;;;;;;;9.80;3.42;;;;;;;41.02;15.17;95271.25;5084283;28;20031;-81
2023/09/26 11:10:52;;;;;;;9.80;3.25;;;;;;;40.61;15.58;95273.94;5084151;28;20585;-82
2023/09/26 11:13:18;;;;;;;11.75;3.65;;;;;;;40.66;15.59;95269.13;5084128;28;20115;-81
2023/09/26 11:15:45;;;;;;;13.85;3.30;;;;;;;40.76;15.45;95275.47;5067023;28;20020;-81
2023/09/26 11:18:14;;;;;;;9.63;3.70;;;;;;;40.51;15.51;95264.72;5084404;28;20032;-82
2023/09/26 11:20:40;;;;;;;14.30;3.50;;;;;;;40.81;15.26;95265.69;5066904;28;20031;-81
2023/09/26 11:23:05;;;;;;;13.73;4.47;;;;;;;40.97;15.32;95269.50;5087301;28;20504;-80
2023/09/26 11:25:31;;;;;;;14.32;4.25;;;;;;;40.21;15.77;95252.91;5071039;28;20036;-81